EW9826 Weather Reports


Display with metric or nautical units.
time (UTC)temp
F
wind
direction
speed
MPH
gust
MPH
rain 1hr
in
rain 24hr
in
rain mn
in
humidity
%
barometer
mb
20210920013025 57 117 4.0 9.0 0.00 0.00 0.00 79 1017.5
20210920012526 57 109 3.0 7.0 0.00 0.00 0.00 79 1017.6
20210920012026 57 95 3.0 9.0 0.00 0.00 0.00 78 1017.5
20210920011525 57 103 7.0 13.0 0.00 0.00 0.00 78 1017.4
20210920011025 57 98 6.0 9.0 0.00 0.00 0.00 79 1017.4
20210920010025 57 85 5.0 7.0 0.00 0.00 0.00 79 1017.5
20210920005525 57 102 3.0 8.0 0.00 0.00 0.00 80 1017.5
20210920004525 57 113 3.0 7.0 0.00 0.00 0.00 81 1017.4
20210920004025 57 111 3.0 9.0 0.00 0.00 0.00 81 1017.4
20210920003525 57 103 5.0 8.0 0.00 0.00 0.00 81 1017.4
20210920003025 58 104 3.0 7.0 0.00 0.00 0.00 80 1017.4
20210920002525 58 103 5.0 9.0 0.00 0.00 0.00 80 1017.4
20210920002026 58 103 5.0 8.0 0.00 0.00 0.00 80 1017.4
20210920001525 58 128 5.0 8.0 0.00 0.00 0.00 79 1017.3
20210920001029 58 115 3.0 10.0 0.00 0.00 0.00 79 1017.4
20210919235525 58 141 5.0 8.0 0.00 0.00 0.00 79 1017.4
20210919235025 58 126 3.0 7.0 0.00 0.00 0.00 80 1017.4
20210919234525 58 114 3.0 8.0 0.00 0.00 0.00 80 1017.4
20210919234025 58 106 4.0 7.0 0.00 0.00 0.00 80 1017.4
20210919233025 58 107 4.0 10.0 0.00 0.00 0.00 80 1017.3
20210919232025 58 101 5.0 9.0 0.00 0.00 0.00 80 1017.3
20210919231526 58 104 5.0 9.0 0.00 0.00 0.00 80 1017.4
20210919231026 58 93 4.0 10.0 0.00 0.00 0.00 80 1017.3
20210919225528 58 130 5.0 10.0 0.00 0.00 0.00 81 1017.2
20210919225025 58 111 2.0 10.0 0.00 0.00 0.00 81 1017.2
20210919224525 58 115 4.0 8.0 0.00 0.00 0.00 81 1017.2
20210919223524 59 101 2.0 5.0 0.00 0.00 0.00 82 1017.1
20210919223025 59 110 3.0 7.0 0.00 0.00 0.00 82 1017.0
20210919222025 59 104 3.0 9.0 0.00 0.00 0.00 82 1016.9
20210919221525 59 112 4.0 9.0 0.00 0.00 0.00 82 1016.9
20210919221026 59 75 3.0 7.0 0.00 0.00 0.00 82 1016.8
20210919215524 59 116 2.0 7.0 0.00 0.00 0.00 84 1016.8
20210919214025 59 102 2.0 5.0 0.00 0.00 0.00 84 1016.7
20210919213524 59 102 3.0 6.0 0.00 0.00 0.00 84 1016.6
20210919213026 59 96 3.0 6.0 0.00 0.00 0.00 83 1016.6
20210919212525 60 96 3.0 5.0 0.00 0.00 0.00 83 1016.6
20210919212025 60 100 1.0 3.0 0.00 0.00 0.00 83 1016.5
20210919211525 60 102 1.0 7.0 0.00 0.00 0.00 82 1016.4
20210919211026 60 95 3.0 8.0 0.00 0.00 0.00 82 1016.4
20210919210024 60 105 2.0 6.0 0.00 0.00 0.00 82 1016.3
20210919204524 61 100 4.0 8.0 0.00 0.00 0.00 81 1016.2
20210919204025 61 114 3.0 9.0 0.00 0.00 0.00 81 1016.2
20210919203524 61 111 5.0 8.0 0.00 0.00 0.00 81 1016.2
20210919203025 61 112 3.0 6.0 0.00 0.00 0.00 81 1016.1
20210919202524 61 100 3.0 9.0 0.00 0.00 0.00 80 1016.0
20210919202025 61 117 3.0 9.0 0.00 0.00 0.00 81 1016.0
20210919201524 62 98 4.0 9.0 0.00 0.00 0.00 80 1016.0
20210919200027 62 96 4.0 9.0 0.00 0.00 0.00 80 1015.9
20210919195524 62 115 5.0 9.0 0.00 0.00 0.00 80 1015.8
20210919195025 62 102 4.0 10.0 0.00 0.00 0.00 80 1015.8
20210919194025 63 114 6.0 10.0 0.00 0.00 0.00 79 1015.8
20210919193524 63 109 4.0 8.0 0.00 0.00 0.00 78 1015.8
20210919192529 63 113 6.0 12.0 0.00 0.00 0.00 78 1015.7
20210919192025 63 114 7.0 10.0 0.00 0.00 0.00 78 1015.7
20210919190024 63 109 5.0 9.0 0.00 0.00 0.00 79 1015.3
20210919185525 64 114 2.0 5.0 0.00 0.00 0.00 79 1015.3
20210919185025 64 120 5.0 9.0 0.00 0.00 0.00 78 1015.3
20210919184524 64 120 3.0 9.0 0.00 0.00 0.00 78 1015.3
20210919184025 64 104 5.0 8.0 0.00 0.00 0.00 78 1015.2
20210919183524 64 122 4.0 8.0 0.00 0.00 0.00 78 1015.2
20210919183025 64 108 2.0 6.0 0.00 0.00 0.00 78 1015.2
20210919182527 64 138 5.0 9.0 0.00 0.00 0.00 78 1015.1
20210919181025 65 89 3.0 7.0 0.00 0.00 0.00 78 1014.9
20210919175026 65 102 2.0 5.0 0.00 0.00 0.00 77 1014.8
20210919174524 65 103 3.0 6.0 0.00 0.00 0.00 77 1014.8
20210919174026 65 107 3.0 7.0 0.00 0.00 0.00 77 1014.8
20210919173524 65 116 3.0 5.0 0.00 0.00 0.00 77 1014.7
20210919173026 66 118 3.0 6.0 0.00 0.00 0.00 76 1014.7
20210919172025 66 109 4.0 7.0 0.00 0.00 0.00 76 1014.6
20210919171026 66 109 3.0 8.0 0.00 0.00 0.00 76 1014.4
20210919170025 66 65 3.0 8.0 0.00 0.00 0.00 76 1014.3
20210919164025 67 103 2.0 7.0 0.00 0.00 0.00 74 1014.3
20210919163024 68 98 6.0 9.0 0.00 0.00 0.00 72 1014.3
20210919162524 68 108 3.0 6.0 0.00 0.00 0.00 72 1014.3
20210919162024 68 91 4.0 7.0 0.00 0.00 0.00 71 1014.3
20210919161523 68 163 3.0 7.0 0.00 0.00 0.00 70 1014.3
20210919160027 69 106 4.0 13.0 0.00 0.00 0.00 69 1014.3
20210919155526 68 162 2.0 7.0 0.00 0.00 0.00 69 1014.3
20210919155025 68 165 5.0 9.0 0.00 0.00 0.00 69 1014.3
20210919154025 68 151 2.0 7.0 0.00 0.00 0.00 70 1014.3
20210919152025 68 97 5.0 12.0 0.00 0.00 0.00 69 1014.3
20210919151024 69 133 6.0 12.0 0.00 0.00 0.00 68 1014.2
20210919150024 69 132 3.0 9.0 0.00 0.00 0.00 68 1014.2
20210919145524 70 150 5.0 9.0 0.00 0.00 0.00 67 1014.2
20210919145024 69 111 5.0 10.0 0.00 0.00 0.00 67 1014.2
20210919144523 69 109 4.0 9.0 0.00 0.00 0.00 67 1014.2
20210919144024 69 98 3.0 7.0 0.00 0.00 0.00 67 1014.2
20210919143524 69 109 5.0 9.0 0.00 0.00 0.00 67 1014.2
20210919143024 69 126 5.0 8.0 0.00 0.00 0.00 66 1014.1
20210919141024 69 149 3.0 12.0 0.00 0.00 0.00 67 1014.0
20210919135024 69 115 5.0 14.0 0.00 0.00 0.00 68 1013.9
20210919133523 69 112 4.0 8.0 0.00 0.00 0.00 68 1014.0
20210919133024 69 167 5.0 9.0 0.00 0.00 0.00 69 1014.1
20210919132524 69 158 5.0 10.0 0.00 0.00 0.00 69 1014.2
20210919132023 69 129 4.0 8.0 0.00 0.00 0.00 70 1014.1
20210919131024 69 136 7.0 13.0 0.00 0.00 0.00 69 1014.3
20210919130023 69 108 5.0 10.0 0.00 0.00 0.00 71 1014.2
20210919125524 69 110 7.0 13.0 0.00 0.00 0.00 71 1014.2
20210919125024 69 111 6.0 10.0 0.00 0.00 0.00 71 1014.2
20210919124524 68 113 5.0 9.0 0.00 0.00 0.00 73 1014.3
20210919124024 68 118 5.0 10.0 0.00 0.00 0.00 73 1014.3
20210919123527 69 130 7.0 12.0 0.00 0.00 0.00 71 1014.3
20210919123024 68 166 4.0 8.0 0.00 0.00 0.00 72 1014.3
20210919122523 68 102 7.0 12.0 0.00 0.00 0.00 72 1014.3
20210919120024 67 112 4.0 10.0 0.00 0.00 0.00 73 1014.4
20210919115024 67 109 6.0 10.0 0.00 0.00 0.00 75 1014.7
20210919114523 67 123 6.0 13.0 0.00 0.00 0.00 74 1014.7
20210919114026 67 96 5.0 12.0 0.00 0.00 0.00 74 1014.6
20210919113024 67 109 5.0 9.0 0.00 0.00 0.00 74 1014.7
20210919112024 67 118 7.0 10.0 0.00 0.00 0.00 74 1014.8
20210919111523 66 118 5.0 9.0 0.00 0.00 0.00 75 1014.8
20210919110023 66 103 4.0 9.0 0.00 0.00 0.00 76 1014.8
20210919105523 66 129 5.0 10.0 0.00 0.00 0.00 75 1014.8
20210919105026 66 95 5.0 8.0 0.00 0.00 0.00 76 1014.7
20210919104523 65 91 6.0 10.0 0.00 0.00 0.00 77 1014.8
20210919104025 65 117 7.0 9.0 0.00 0.00 0.00 77 1014.8
20210919103523 65 82 6.0 12.0 0.00 0.00 0.00 77 1014.8
20210919102023 64 107 7.0 12.0 0.00 0.00 0.00 77 1015.0
20210919101525 64 99 5.0 8.0 0.00 0.00 0.00 78 1015.0
20210919100023 64 126 3.0 12.0 0.00 0.00 0.00 79 1015.0
20210919095023 64 91 5.0 9.0 0.00 0.00 0.00 80 1014.9
20210919094523 63 100 6.0 9.0 0.00 0.00 0.00 80 1014.9
20210919094024 63 102 7.0 12.0 0.00 0.00 0.00 80 1014.9
20210919093025 63 126 5.0 10.0 0.00 0.00 0.00 81 1014.8
20210919092526 63 100 7.0 12.0 0.00 0.00 0.00 81 1014.8
20210919092023 62 118 6.0 12.0 0.00 0.00 0.00 81 1014.9
20210919091523 62 112 6.0 12.0 0.00 0.00 0.00 81 1014.8
20210919091023 62 111 5.0 13.0 0.00 0.00 0.00 81 1014.8
20210919090023 62 116 5.0 12.0 0.00 0.00 0.00 82 1014.8
20210919085522 62 100 5.0 10.0 0.00 0.00 0.00 83 1014.8
20210919084522 61 114 6.0 12.0 0.00 0.00 0.00 83 1014.8
20210919084027 61 110 5.0 12.0 0.00 0.00 0.00 84 1014.8
20210919083522 61 116 8.0 14.0 0.00 0.00 0.00 84 1014.7
20210919083024 60 95 6.0 12.0 0.00 0.00 0.00 84 1014.7
20210919082024 60 93 5.0 10.0 0.00 0.00 0.00 85 1014.7
20210919081526 60 91 3.0 10.0 0.00 0.00 0.00 86 1014.8
20210919080023 59 94 8.0 13.0 0.00 0.00 0.00 86 1014.8
20210919075524 59 98 7.0 12.0 0.00 0.00 0.00 86 1014.8
20210919074522 58 113 4.0 10.0 0.00 0.00 0.00 87 1014.7
20210919074023 58 99 4.0 9.0 0.00 0.00 0.00 87 1014.7
20210919073525 57 117 6.0 10.0 0.00 0.00 0.00 87 1014.8
20210919073023 57 87 6.0 10.0 0.00 0.00 0.00 87 1014.8
20210919072523 57 130 5.0 9.0 0.00 0.00 0.00 87 1014.8
20210919072027 56 108 5.0 9.0 0.00 0.00 0.00 88 1014.7
20210919071526 56 103 5.0 8.0 0.00 0.00 0.00 88 1014.7
20210919065024 55 107 2.0 5.0 0.00 0.00 0.00 88 1014.4
20210919064522 55 90 2.0 5.0 0.00 0.00 0.00 89 1014.3
20210919063523 55 91 1.0 5.0 0.00 0.00 0.00 89 1014.3
20210919063023 54 92 0.0 0.0 0.00 0.00 0.00 89 1014.4
20210919062023 54 87 0.0 0.0 0.00 0.00 0.00 89 1014.3
20210919061023 54 87 0.0 0.0 0.00 0.00 0.00 88 1014.3
20210919060022 54 87 0.0 1.0 0.00 0.00 0.00 88 1014.3
20210919055023 53 87 0.0 0.0 0.00 0.00 0.00 88 1014.3
20210919054522 53 87 0.0 1.0 0.00 0.00 0.00 88 1014.3
20210919053523 53 87 0.0 2.0 0.00 0.00 0.00 88 1014.3
20210919051524 54 88 1.0 2.0 0.00 0.00 0.00 88 1014.2
20210919051028 54 88 1.0 2.0 0.00 0.00 0.00 88 1014.2
20210919050022 54 88 1.0 5.0 0.00 0.00 0.00 88 1014.2
20210919045525 54 96 1.0 3.0 0.00 0.00 0.00 88 1014.3
20210919044522 54 96 1.0 3.0 0.00 0.00 0.00 88 1014.2
20210919044022 54 96 1.0 3.0 0.00 0.00 0.00 88 1014.2
20210919043023 54 96 0.0 3.0 0.00 0.00 0.00 88 1014.3
20210919042522 54 96 0.0 2.0 0.00 0.00 0.00 88 1014.2
20210919042023 54 96 0.0 2.0 0.00 0.00 0.00 88 1014.2
20210919041023 54 96 0.0 3.0 0.00 0.00 0.00 88 1014.3
20210919040025 54 96 1.0 2.0 0.00 0.00 0.00 88 1014.3
20210919035023 54 96 1.0 3.0 0.00 0.00 0.00 88 1014.3
20210919034525 55 96 1.0 2.0 0.00 0.00 0.00 87 1014.3
20210919034023 55 96 0.0 2.0 0.00 0.00 0.00 87 1014.3
20210919033522 55 96 1.0 3.0 0.00 0.00 0.00 87 1014.3
20210919033023 55 98 1.0 3.0 0.00 0.00 0.00 87 1014.3
20210919032523 55 98 1.0 5.0 0.00 0.00 0.00 87 1014.3
20210919031522 55 62 1.0 2.0 0.00 0.00 0.00 87 1014.3
20210919031022 55 61 1.0 7.0 0.00 0.00 0.00 87 1014.3
20210919025522 55 98 3.0 6.0 0.00 0.00 0.00 87 1014.5
20210919025023 55 96 2.0 5.0 0.00 0.00 0.00 87 1014.5
20210919024521 55 75 2.0 5.0 0.00 0.00 0.00 87 1014.5
20210919024022 55 96 1.0 5.0 0.00 0.00 0.00 87 1014.5
20210919023522 55 95 1.0 6.0 0.00 0.00 0.00 87 1014.5
20210919023023 55 90 1.0 6.0 0.00 0.00 0.00 87 1014.5
20210919022522 55 92 2.0 5.0 0.00 0.00 0.00 87 1014.6
20210919021522 55 94 1.0 6.0 0.00 0.00 0.00 87 1014.8
20210919021023 55 92 2.0 3.0 0.00 0.00 0.00 87 1014.8
20210919020022 55 88 1.0 3.0 0.00 0.00 0.00 87 1014.8
20210919015022 55 82 2.0 5.0 0.00 0.00 0.00 87 1014.7
20210919014027 56 85 2.0 5.0 0.00 0.00 0.00 87 1014.8
20210919013522 56 72 2.0 3.0 0.00 0.00 0.00 87 1014.8